Archival Weather

Chicago O'Hare International

Chicago, Illinois (KORD)

Report from: Tuesday, September 19, 2023 8:51 PM CDT
Current time: Saturday, July 13, 2024 9:07 PM CDT

Current weather – Weather history – Daily summaries
Weather forecast

Present weatherLight rain
Temperature20.0°C (68.0°F)
Dew point13.9°C (57.0°F)
Winds 14 kts (7.2 m/s, 16.1 mph) South (170°)
Wind gusts 21 kts (10.8 m/s, 24.2 mph)
Visibility10 mi. (16.1 km)
Clouds Scattered clouds 6,000 ft. (1,829 m)
Ceiling: Overcast 11,000 ft. (3,353 m)
Altimeter29.97 in.Hg (1015 mB)
PrecipitiationTrace
Relative humidity68 %
Density altitude760 ft. (232 m)
Sea-level pressure101.5 kPa (1015 mB, 29.96 in.Hg)
Remarks Automated weather observing station with precipitation discriminator
Flight conditions Visual Meteorological Conditions
Raw dataKORD 200151Z 17014G21KT 10SM -RA SCT060 OVC110 20/14 A2997 RMK AO2 SLP146 P0000 T02000139
An error has occurred. This application may no longer respond until reloaded. Reload 🗙